Hauptseite
METAR-TAF:

METAR-TAF

Flughäfen :

Yeovilton, England

RNAS Yeovilton

Breite: 51-00N, Länge: 002-38W, Höhe: 23 m

Beobachtung

Neuester Wetterbericht von vor 1 Stunde und 3 Minuten, um 11:50 UTC
Wind 4 kt aus West/Südwest
Temperatur 7°C
Luftfeuchtigkeit 100%
Luftdruck 999 hPa
Sichtweite: 9000 m
feuchter Dunst

METAR: EGDY 201150Z AUTO 25004KT 9000 BR OVC003/// 07/07 Q0999 RERA

Zeit: 12:53 (12:53 UTC)

Prognose

Neuester Wetterbericht von vor 25 Stunden und 42 Minuten, um 11:11 UTC
Gültige Prognose vom 19 um 12 UTC bis 19 um 21 UTC
Wind 10 kt aus West/Südwest
Sichtweite 10 km oder mehr
Aufgelockert bewölkt in der Höhe von 3000 ft
Zeitweise
vom 19 um 12 UTC bis 19 um 20 UTC
Wind 15 kt aus West/Südwest, Böen bis zu 25 kt
Sichtweite: 7000 m
Aufgelockert bewölkt in der Höhe von 2000 ft, Towering cumulus.
Regenschauer

TAF: EGDY 191111Z 1912/1921 25010KT 9999 SCT030 TEMPO 1912/1920 25015G25KT 7000 SHRA SCT020TCU

Wetterbeobachtungen und Prognosen von mehr als 4000 Flughäfen (METAR und TAF Bericht).

Die verfügbaren Stationen werden durch gelbe und rote Markierungen auf der Karte dargestellt.

Führen Sie die Maus auf sie, um den Namen der Station zu sehen.

Darauf klicken, um die Beobachtung von Wetterbeobachtungen und Prognosen zu sehen.

Um die Karte zu ändern : klicken Sie auf den grünen Tasten mit einem schwarzen Kreuz Zum Vergrößern, auf den grünen Button mit einem Gedankenstrich zu verkleinern, oder auf die grünen Pfeile für benachbarte Karten.


METAR-TAF: